Ballinger, TX (76821)

7:13 PM CST on December 10, 2016 (GMT -0600)
West of Lake Winters | | Change Station

Elev 1834 ft 31.96 °N, 99.88 °W | Updated 1 second ago

Overcast
Overcast
53.4 °F
Feels Like 53.4 °F
N
7.6
Wind Variable Wind from South
Gusts 9.8 mph

Today
High -- | Low -- °F
--% Chance of Precip.
Yesterday
High -- | Low -- °F
Precip. -- in
Pressure 30.14 in
Visibility 10.0 miles
Clouds Overcast 2100 ft
Dew Point 48 °F
Humidity 83%
Rainfall 0.00 in
Snow Depth Not available.
7:29 AM 5:36 PM
Waxing Gibbous, 87% visible
METAR KCOM 110055Z AUTO 19013G19KT 10SM OVC021 12/08 A3014 RMK AO2 T01160078
Pressure 30.14 in
Visibility 10.0 miles
Clouds Overcast 2100 ft
Dew Point 48 °F
Humidity 83%
Rainfall 0.00 in
Snow Depth Not available.
7:29 AM 5:36 PM
Waxing Gibbous, 87% visible
METAR KCOM 110055Z AUTO 19013G19KT 10SM OVC021 12/08 A3014 RMK AO2 T01160078

10-Day Weather Forecast

Almanac

Astronomy

Dec. 10, 2016 Rise Set
Actual Time
Civil Twilight
Nautical Twilight
Astronomical Twilight
Moon
Length of Visible Light
Length of Day
Tomorrow will be .
, % of the Moon is Illuminated

Today's Extremes

State Highs State Lows

Community

WunderPhotos

Upload Photos

1,956,685 photos uploaded!

WunderBlog® & News

Nearby

Air Quality

  Air Quality AQ Index Pollutant
Not available.

Snow Depth

Station Depth Elevation

Earthquake Activity

City Distance Mag. Time & Date
Minimum magnitude displayed is 2.5.

Coastal Water Temperatures

Place Temperature

Stations

Nearby Weather Stations

Station Location Temp. Windchill Dew Point Humidity Wind Precip. Elev Updated Type
                   

Watches & Warnings

There are currently no watches in effect.